Oosterdam — PBKH — position and weather

sailwx.info

Track history (hours):
 
Tides and Currents Weather Stations Pressure Air Temp Water Temp Dewpoint Dewpoint Depression Visibility Wind Speed Wind Dir Waves Ship Positions

Oosterdam

Operator: Holland America Line

Last reported at 2017-Oct-22 05:00 UTC. Time now 2017-Oct-22 08:17 UTC.
Position N 31°18' W 163°42'.

Type: Passenger vessel. MMSI: 245417000.

Wind from 170 at 18 knots

Barometer 1018.1 mb
Air temperature 18.6 ° C
Visibility: greater than 27.0 NM
Dewpoint 16.6 ° C
Water temperature 18.0 ° C

Date/timePositionNaut miles runAvg speedWind from/ knotsBaromVisibWave heightAir tempDewpointWater temp
2017-Oct-22 05:00N 31°18' W 163°42'2378755.3 170 / 181018.127.0 18.616.618.0
2017-Oct-22 01:51N 32°14' W 117°06'514.8
2017-Oct-22 01:30N 32°19' W 117°08'814.6
2017-Oct-22 00:59N 32°26' W 117°11'1214.8
2017-Oct-22 00:12N 32°37' W 117°13'4 0.3
2017-Oct-21 12:55N 32°41' W 117°14'21716.8
2017-Oct-21 00:00N 29°12' W 116°06'18015.0 330 / 341015.210.8 20.2 21.0
2017-Oct-20 12:00N 26°36' W 114°24'34314.3 340 / 211012.0 5.4 21.6 24.0
2017-Oct-19 12:00N 22°48' W 109°42'235 9.4 300 / 171009.0 5.4 28.7 30.0
2017-Oct-18 11:00N 21°18' W 105°48'67 2.7 350 / 81011.0 5.4 28.9 30.0
2017-Oct-17 10:00N 21°12' W 107°00'12517.8 090 / 31012.0 5.4 28.5 30.0
2017-Oct-17 03:00N 22°18' W 108°54'5819.4 120 / 171012.810.8 28.726.329.0
2017-Oct-17 00:00N 22°48' W 109°48'74 5.7 190 / 61012.210.8 29.224.1
2017-Oct-16 11:00N 23°30' W 110°54'30720.1 360 / 101013.0 5.4 27.4 30.0
2017-Oct-15 19:45N 27°11' W 114°50'518.9
2017-Oct-15 19:31N 27°14' W 114°53'9519.2
2017-Oct-15 14:35N 28°32' W 115°55'1219.7
2017-Oct-15 14:00N 28°43' W 115°58'1019.8
2017-Oct-15 13:31N 28°52' W 116°01'1019.9
2017-Oct-15 13:00N 29°02' W 116°04'1019.9
2017-Oct-15 12:31N 29°11' W 116°07'713.0
2017-Oct-15 12:00N 29°18' W 116°06'1132.5 360 / 91016.0 5.4 20.1 22.0
2017-Oct-15 11:40N 29°27' W 116°12'719.4
2017-Oct-15 11:19N 29°34' W 116°14'619.3
2017-Oct-15 11:00N 29°40' W 116°16'1019.6
2017-Oct-15 10:30N 29°49' W 116°19'1019.7
2017-Oct-15 10:00N 29°59' W 116°22'1019.7
2017-Oct-15 09:30N 30°08' W 116°25'1019.8
2017-Oct-15 09:00N 30°18' W 116°27'919.0
2017-Oct-15 08:31N 30°27' W 116°30'2618.6
2017-Oct-15 07:08N 30°52' W 116°38'218.3
2017-Oct-15 07:01N 30°54' W 116°39'918.5
2017-Oct-15 06:31N 31°03' W 116°41'918.7
2017-Oct-15 06:01N 31°12' W 116°44'918.5
2017-Oct-15 05:31N 31°21' W 116°47'1018.6
2017-Oct-15 04:57N 31°31' W 116°51'818.9
2017-Oct-15 04:30N 31°39' W 116°54'918.7
2017-Oct-15 04:01N 31°48' W 116°57'1018.7
2017-Oct-15 03:30N 31°57' W 117°00'918.7
2017-Oct-15 03:00N 32°06' W 117°03'918.8
2017-Oct-15 02:31N 32°14' W 117°07'817.0
2017-Oct-15 02:01N 32°22' W 117°10'817.0
2017-Oct-15 01:30N 32°30' W 117°13'714.9
2017-Oct-15 01:01N 32°38' W 117°13'510.1
2017-Oct-15 00:30N 32°43' W 117°13'2 3.7
2017-Oct-14 23:58N 32°43' W 117°10'0 0.1
2017-Oct-14 23:28N 32°43' W 117°10'0 0.1
2017-Oct-14 22:58N 32°43' W 117°10'0 0.0
2017-Oct-14 22:28N 32°43' W 117°10'0 0.1
2017-Oct-14 21:55N 32°43' W 117°10'0 0.0
2017-Oct-14 21:28N 32°43' W 117°10'0 0.1
2017-Oct-14 20:52N 32°43' W 117°10'0 0.0
2017-Oct-14 20:25N 32°43' W 117°10'0 0.0
2017-Oct-14 19:55N 32°43' W 117°10'0 0.0
2017-Oct-14 19:25N 32°43' W 117°10'0 0.0
2017-Oct-14 18:55N 32°43' W 117°10'0 0.1
2017-Oct-14 18:31N 32°43' W 117°10'0 0.1
2017-Oct-14 17:55N 32°43' W 117°10'0 0.0
2017-Oct-14 17:28N 32°43' W 117°10'0 0.0
2017-Oct-14 16:58N 32°43' W 117°10'0 0.1
2017-Oct-14 16:28N 32°43' W 117°10'0 0.1
2017-Oct-14 16:01N 32°43' W 117°10'0 0.0
2017-Oct-14 15:25N 32°43' W 117°10'0 0.1
2017-Oct-14 14:58N 32°43' W 117°10'0 0.0
2017-Oct-14 14:22N 32°43' W 117°10'0 0.1
2017-Oct-14 13:58N 32°43' W 117°10'0 0.0
2017-Oct-14 13:31N 32°43' W 117°10'3 5.7
2017-Oct-14 13:00N 32°42' W 117°14'510.5
2017-Oct-14 12:31N 32°37' W 117°13'713.0
2017-Oct-14 12:00N 32°31' W 117°13'713.4
2017-Oct-14 11:30N 32°24' W 117°10'713.4
2017-Oct-14 11:00N 32°18' W 117°08'714.8
2017-Oct-14 10:30N 32°11' W 117°05'918.8
2017-Oct-14 10:01N 32°02' W 117°02'1518.9
2017-Oct-14 09:13N 31°48' W 116°57'918.9
2017-Oct-14 08:45N 31°39' W 116°54'718.7
2017-Oct-14 08:23N 31°33' W 116°52'718.6
2017-Oct-14 07:59N 31°26' W 116°49'1119.0
2017-Oct-14 07:24N 31°15' W 116°45'8218.2
2017-Oct-14 02:53N 29°55' W 116°21'2629.7
2017-Oct-14 02:00N 29°30' W 116°12'18116.5 320 / 141014.0 19.0
2017-Oct-13 15:03N 26°52' W 114°33'4220.2
2017-Oct-13 13:00N 26°18' W 114°06'22217.1 030 / 231014.0 5.4 20.2 28.0
2017-Oct-13 00:00N 23°42' W 111°12'22317.2 300 / 151008.010.8 26.9 26.0
2017-Oct-12 11:00N 21°42' W 107°48'   160 / 101009.0 5.4 28.0 30.0
Track history (hours):
 
Tides and Currents Weather Stations Pressure Air Temp Water Temp Dewpoint Dewpoint Depression Visibility Wind Speed Wind Dir Waves Ship Positions

Oosterdam

Operator: Holland America Line

Last reported at 2017-Oct-22 05:00 UTC. Time now 2017-Oct-22 08:17 UTC.
Position N 31°18' W 163°42'.

Type: Passenger vessel. MMSI: 245417000.

Wind from 170 at 18 knots

Barometer 1018.1 mb
Air temperature 18.6 ° C
Visibility: greater than 27.0 NM
Dewpoint 16.6 ° C
Water temperature 18.0 ° C

Date/timePositionNaut miles runAvg speedWind from/ knotsBaromVisibWave heightAir tempDewpointWater temp
2017-Oct-22 05:00N 31°18' W 163°42'2378755.3 170 / 181018.127.0 18.616.618.0
2017-Oct-22 01:51N 32°14' W 117°06'514.8
2017-Oct-22 01:30N 32°19' W 117°08'814.6
2017-Oct-22 00:59N 32°26' W 117°11'1214.8
2017-Oct-22 00:12N 32°37' W 117°13'4 0.3
2017-Oct-21 12:55N 32°41' W 117°14'21716.8
2017-Oct-21 00:00N 29°12' W 116°06'18015.0 330 / 341015.210.8 20.2 21.0
2017-Oct-20 12:00N 26°36' W 114°24'34314.3 340 / 211012.0 5.4 21.6 24.0
2017-Oct-19 12:00N 22°48' W 109°42'235 9.4 300 / 171009.0 5.4 28.7 30.0
2017-Oct-18 11:00N 21°18' W 105°48'67 2.7 350 / 81011.0 5.4 28.9 30.0
2017-Oct-17 10:00N 21°12' W 107°00'12517.8 090 / 31012.0 5.4 28.5 30.0
2017-Oct-17 03:00N 22°18' W 108°54'5819.4 120 / 171012.810.8 28.726.329.0
2017-Oct-17 00:00N 22°48' W 109°48'74 5.7 190 / 61012.210.8 29.224.1
2017-Oct-16 11:00N 23°30' W 110°54'30720.1 360 / 101013.0 5.4 27.4 30.0
2017-Oct-15 19:45N 27°11' W 114°50'518.9
2017-Oct-15 19:31N 27°14' W 114°53'9519.2
2017-Oct-15 14:35N 28°32' W 115°55'1219.7
2017-Oct-15 14:00N 28°43' W 115°58'1019.8
2017-Oct-15 13:31N 28°52' W 116°01'1019.9
2017-Oct-15 13:00N 29°02' W 116°04'1019.9
2017-Oct-15 12:31N 29°11' W 116°07'713.0
2017-Oct-15 12:00N 29°18' W 116°06'1132.5 360 / 91016.0 5.4 20.1 22.0
2017-Oct-15 11:40N 29°27' W 116°12'719.4
2017-Oct-15 11:19N 29°34' W 116°14'619.3
2017-Oct-15 11:00N 29°40' W 116°16'1019.6
2017-Oct-15 10:30N 29°49' W 116°19'1019.7
2017-Oct-15 10:00N 29°59' W 116°22'1019.7
2017-Oct-15 09:30N 30°08' W 116°25'1019.8
2017-Oct-15 09:00N 30°18' W 116°27'919.0
2017-Oct-15 08:31N 30°27' W 116°30'2618.6
2017-Oct-15 07:08N 30°52' W 116°38'218.3
2017-Oct-15 07:01N 30°54' W 116°39'918.5
2017-Oct-15 06:31N 31°03' W 116°41'918.7
2017-Oct-15 06:01N 31°12' W 116°44'918.5
2017-Oct-15 05:31N 31°21' W 116°47'1018.6
2017-Oct-15 04:57N 31°31' W 116°51'818.9
2017-Oct-15 04:30N 31°39' W 116°54'918.7
2017-Oct-15 04:01N 31°48' W 116°57'1018.7
2017-Oct-15 03:30N 31°57' W 117°00'918.7
2017-Oct-15 03:00N 32°06' W 117°03'918.8
2017-Oct-15 02:31N 32°14' W 117°07'817.0
2017-Oct-15 02:01N 32°22' W 117°10'817.0
2017-Oct-15 01:30N 32°30' W 117°13'714.9
2017-Oct-15 01:01N 32°38' W 117°13'510.1
2017-Oct-15 00:30N 32°43' W 117°13'2 3.7
2017-Oct-14 23:58N 32°43' W 117°10'0 0.1
2017-Oct-14 23:28N 32°43' W 117°10'0 0.1
2017-Oct-14 22:58N 32°43' W 117°10'0 0.0
2017-Oct-14 22:28N 32°43' W 117°10'0 0.1
2017-Oct-14 21:55N 32°43' W 117°10'0 0.0
2017-Oct-14 21:28N 32°43' W 117°10'0 0.1
2017-Oct-14 20:52N 32°43' W 117°10'0 0.0
2017-Oct-14 20:25N 32°43' W 117°10'0 0.0
2017-Oct-14 19:55N 32°43' W 117°10'0 0.0
2017-Oct-14 19:25N 32°43' W 117°10'0 0.0
2017-Oct-14 18:55N 32°43' W 117°10'0 0.1
2017-Oct-14 18:31N 32°43' W 117°10'0 0.1
2017-Oct-14 17:55N 32°43' W 117°10'0 0.0
2017-Oct-14 17:28N 32°43' W 117°10'0 0.0
2017-Oct-14 16:58N 32°43' W 117°10'0 0.1
2017-Oct-14 16:28N 32°43' W 117°10'0 0.1
2017-Oct-14 16:01N 32°43' W 117°10'0 0.0
2017-Oct-14 15:25N 32°43' W 117°10'0 0.1
2017-Oct-14 14:58N 32°43' W 117°10'0 0.0
2017-Oct-14 14:22N 32°43' W 117°10'0 0.1
2017-Oct-14 13:58N 32°43' W 117°10'0 0.0
2017-Oct-14 13:31N 32°43' W 117°10'3 5.7
2017-Oct-14 13:00N 32°42' W 117°14'510.5
2017-Oct-14 12:31N 32°37' W 117°13'713.0
2017-Oct-14 12:00N 32°31' W 117°13'713.4
2017-Oct-14 11:30N 32°24' W 117°10'713.4
2017-Oct-14 11:00N 32°18' W 117°08'714.8
2017-Oct-14 10:30N 32°11' W 117°05'918.8
2017-Oct-14 10:01N 32°02' W 117°02'1518.9
2017-Oct-14 09:13N 31°48' W 116°57'918.9
2017-Oct-14 08:45N 31°39' W 116°54'718.7
2017-Oct-14 08:23N 31°33' W 116°52'718.6
2017-Oct-14 07:59N 31°26' W 116°49'1119.0
2017-Oct-14 07:24N 31°15' W 116°45'8218.2
2017-Oct-14 02:53N 29°55' W 116°21'2629.7
2017-Oct-14 02:00N 29°30' W 116°12'18116.5 320 / 141014.0 19.0
2017-Oct-13 15:03N 26°52' W 114°33'4220.2
2017-Oct-13 13:00N 26°18' W 114°06'22217.1 030 / 231014.0 5.4 20.2 28.0
2017-Oct-13 00:00N 23°42' W 111°12'22317.2 300 / 151008.010.8 26.9 26.0
2017-Oct-12 11:00N 21°42' W 107°48'   160 / 101009.0 5.4 28.0 30.0

Dump ship's entire track history